Time;durP1;ratioP1;P1;durP2;ratioP2;P2;SDS_P1;SDS_P2;PMS_P1;PMS_P2;Temp;Humidity;BMP_temperature;BMP_pressure;BME280_temperature;BME280_humidity;BME280_pressure;Samples;Min_cycle;Max_cycle;Signal;HPM_P1;HPM_P2
2023/10/23 00:01:15;;;;;;;3.72;1.30;;;;;;;5.09;100.00;99984.28;5005505;28;20132;-71
2023/10/23 00:03:42;;;;;;;3.35;1.20;;;;;;;4.94;100.00;99987.28;4996431;28;20089;-71
2023/10/23 00:06:09;;;;;;;3.83;1.45;;;;;;;4.77;100.00;99981.69;4992924;28;20185;-71
2023/10/23 00:08:36;;;;;;;6.50;1.70;;;;;;;4.69;100.00;99972.38;4996065;28;20040;-70
2023/10/23 00:11:03;;;;;;;7.22;1.85;;;;;;;4.60;100.00;99990.72;5003081;28;20062;-71
2023/10/23 00:13:29;;;;;;;3.05;1.42;;;;;;;4.49;100.00;99982.38;5006562;28;20061;-70
2023/10/23 00:15:56;;;;;;;4.88;1.75;;;;;;;4.43;100.00;99990.31;5001314;28;20054;-71
2023/10/23 00:18:23;;;;;;;4.63;1.50;;;;;;;4.28;100.00;99994.94;4993093;28;20388;-70
2023/10/23 00:20:49;;;;;;;4.88;1.60;;;;;;;4.12;100.00;99998.78;4991612;28;20050;-70
2023/10/23 00:23:16;;;;;;;3.75;1.45;;;;;;;3.97;100.00;99992.22;4992367;28;20408;-71
2023/10/23 00:25:43;;;;;;;4.95;1.95;;;;;;;3.96;100.00;100000.88;5004123;28;20054;-71
2023/10/23 00:28:09;;;;;;;5.57;1.58;;;;;;;3.96;100.00;100000.88;5001851;28;20050;-71
2023/10/23 00:30:36;;;;;;;5.00;1.80;;;;;;;4.03;100.00;100009.38;5011910;28;20419;-71
2023/10/23 00:33:03;;;;;;;3.80;1.55;;;;;;;3.98;100.00;100012.03;4992133;28;20121;-71
2023/10/23 00:35:30;;;;;;;6.68;1.83;;;;;;;3.99;100.00;100017.19;5001291;28;20054;-71
2023/10/23 00:37:56;;;;;;;6.35;1.67;;;;;;;3.90;100.00;100012.22;4995159;28;20475;-71
2023/10/23 00:40:23;;;;;;;3.67;1.50;;;;;;;3.87;100.00;100020.06;5001710;28;20407;-70
2023/10/23 00:42:50;;;;;;;5.32;1.73;;;;;;;3.79;100.00;100024.56;4998263;28;20051;-71
2023/10/23 00:45:16;;;;;;;5.47;1.60;;;;;;;3.73;100.00;100019.50;5004865;28;20827;-70
2023/10/23 00:47:43;;;;;;;3.95;1.55;;;;;;;3.80;100.00;100027.09;4996029;28;20133;-70
2023/10/23 00:50:10;;;;;;;4.47;1.60;;;;;;;3.83;100.00;100025.34;5006121;28;20056;-70
2023/10/23 00:52:37;;;;;;;11.80;2.10;;;;;;;3.73;100.00;100028.09;5003054;28;20061;-70
2023/10/23 00:55:04;;;;;;;3.78;1.48;;;;;;;3.72;100.00;100036.78;5022855;28;20050;-70
2023/10/23 00:57:32;;;;;;;3.97;1.45;;;;;;;3.73;100.00;100040.22;4992412;28;20058;-71
2023/10/23 00:59:59;;;;;;;4.38;1.70;;;;;;;3.74;100.00;100042.78;4994207;28;20080;-71
2023/10/23 01:02:26;;;;;;;4.20;1.63;;;;;;;3.69;100.00;100029.06;5009999;28;20060;-71
2023/10/23 01:04:52;;;;;;;4.13;1.42;;;;;;;3.79;100.00;100047.88;5010699;28;20072;-70
2023/10/23 01:07:19;;;;;;;3.75;1.50;;;;;;;3.79;100.00;100040.94;5003805;28;20069;-70
2023/10/23 01:09:46;;;;;;;3.13;1.30;;;;;;;3.96;100.00;100056.09;4991919;28;20050;-70
2023/10/23 01:12:13;;;;;;;3.25;1.42;;;;;;;4.03;100.00;100043.88;4992079;28;20050;-71
2023/10/23 01:14:39;;;;;;;3.22;1.30;;;;;;;4.15;100.00;100053.97;5002700;28;20057;-70
2023/10/23 01:17:06;;;;;;;3.08;1.50;;;;;;;4.21;100.00;100042.63;4993983;28;20064;-70
2023/10/23 01:19:33;;;;;;;4.22;1.40;;;;;;;4.25;100.00;100044.28;4990407;28;20053;-70
2023/10/23 01:22:00;;;;;;;3.33;1.30;;;;;;;4.42;100.00;100045.63;4991763;28;20054;-70
2023/10/23 01:24:30;;;;;;;5.32;1.50;;;;;;;4.25;100.00;100039.09;4991874;28;20051;-70
2023/10/23 01:26:56;;;;;;;3.85;1.30;;;;;;;4.26;100.00;100058.06;4991986;28;20503;-71
2023/10/23 01:29:23;;;;;;;5.22;1.50;;;;;;;4.24;100.00;100052.94;5004447;28;20046;-71
2023/10/23 01:31:50;;;;;;;3.78;1.50;;;;;;;4.16;100.00;100052.22;4989855;28;20166;-71
2023/10/23 01:34:16;;;;;;;1.65;1.10;;;;;;;4.11;100.00;100046.34;4990583;28;20412;-70
2023/10/23 01:36:43;;;;;;;4.65;1.45;;;;;;;3.96;100.00;100060.44;4991268;28;20050;-71
2023/10/23 01:39:10;;;;;;;3.53;1.42;;;;;;;3.84;100.00;100065.88;5004276;28;20518;-70
2023/10/23 01:41:36;;;;;;;2.72;1.30;;;;;;;3.67;100.00;100064.50;4997383;28;20061;-71
2023/10/23 01:44:03;;;;;;;3.17;1.45;;;;;;;3.56;100.00;100074.19;5010901;28;20049;-71
2023/10/23 01:46:30;;;;;;;2.85;1.40;;;;;;;3.39;100.00;100062.44;5007785;28;20416;-70
2023/10/23 01:48:56;;;;;;;5.15;2.30;;;;;;;3.39;100.00;100075.38;5000355;28;20045;-71
2023/10/23 01:51:23;;;;;;;3.97;1.50;;;;;;;3.35;100.00;100068.56;5010394;28;20045;-71
2023/10/23 01:53:50;;;;;;;4.05;1.55;;;;;;;3.28;100.00;100072.13;5010809;28;20064;-72
2023/10/23 01:56:17;;;;;;;2.95;1.50;;;;;;;3.17;100.00;100055.94;4994161;28;20086;-70
2023/10/23 01:58:43;;;;;;;4.32;1.60;;;;;;;3.33;100.00;100069.44;4991072;28;20050;-70
2023/10/23 02:01:23;;;;;;;3.00;1.50;;;;;;;3.32;100.00;100073.78;5001574;28;20066;-70
2023/10/23 02:03:50;;;;;;;5.78;2.03;;;;;;;3.14;100.00;100074.13;5005138;28;20082;-71
2023/10/23 02:06:17;;;;;;;3.85;1.75;;;;;;;2.91;100.00;100065.03;4993464;28;20129;-71
2023/10/23 02:08:44;;;;;;;3.33;1.38;;;;;;;2.94;100.00;100082.22;4995488;28;20038;-70
2023/10/23 02:11:11;;;;;;;3.95;1.58;;;;;;;2.98;100.00;100078.72;4999954;28;20047;-70
2023/10/23 02:13:38;;;;;;;6.00;1.90;;;;;;;2.89;100.00;100077.13;4990380;28;20057;-70
2023/10/23 02:16:05;;;;;;;3.90;1.75;;;;;;;2.84;100.00;100069.44;5000012;28;20053;-70
2023/10/23 02:18:32;;;;;;;3.58;1.63;;;;;;;2.82;100.00;100073.78;4997153;28;20105;-71
2023/10/23 02:20:59;;;;;;;4.40;1.60;;;;;;;2.77;100.00;100067.00;5006910;28;20230;-71
2023/10/23 02:23:25;;;;;;;3.40;1.40;;;;;;;2.68;100.00;100068.00;4993640;28;20046;-71
2023/10/23 02:25:56;;;;;;;6.13;1.80;;;;;;;2.64;100.00;100059.44;4993805;28;20072;-71
2023/10/23 02:28:23;;;;;;;3.22;1.48;;;;;;;2.61;100.00;100056.03;4995485;28;20046;-71
2023/10/23 02:30:49;;;;;;;3.45;1.52;;;;;;;2.72;100.00;100074.81;5012199;28;20050;-72
2023/10/23 02:33:16;;;;;;;2.95;1.40;;;;;;;2.63;100.00;100072.38;4994609;28;20054;-71
2023/10/23 02:35:43;;;;;;;4.38;1.55;;;;;;;2.53;100.00;100076.81;5006983;28;20049;-71
2023/10/23 02:38:10;;;;;;;4.63;1.83;;;;;;;2.61;100.00;100079.31;5009722;28;20483;-71
2023/10/23 02:40:37;;;;;;;4.70;1.52;;;;;;;2.69;100.00;100072.25;5005330;28;20557;-71
2023/10/23 02:43:04;;;;;;;4.85;1.55;;;;;;;2.69;100.00;100077.44;4999960;28;20056;-71
2023/10/23 02:45:32;;;;;;;3.25;1.50;;;;;;;2.69;100.00;100080.00;5013967;28;20169;-71
2023/10/23 02:47:59;;;;;;;4.03;1.58;;;;;;;2.58;100.00;100077.59;5000230;28;20060;-71
2023/10/23 02:50:26;;;;;;;3.25;1.40;;;;;;;2.61;100.00;100076.72;5013919;28;20419;-71
2023/10/23 02:52:53;;;;;;;4.32;1.40;;;;;;;2.74;100.00;100069.63;5014310;28;20054;-71
2023/10/23 02:55:19;;;;;;;6.72;1.88;;;;;;;2.79;100.00;100068.66;5000576;28;20050;-71
2023/10/23 02:57:46;;;;;;;2.90;1.50;;;;;;;2.76;100.00;100065.25;5001932;28;20057;-72
2023/10/23 03:00:13;;;;;;;6.25;1.40;;;;;;;2.58;100.00;100075.00;5006509;28;20046;-71
2023/10/23 03:02:43;;;;;;;2.40;1.20;;;;;;;2.50;100.00;100070.84;5018798;28;20054;-71
2023/10/23 03:05:10;;;;;;;9.35;2.17;;;;;;;2.53;100.00;100070.81;4997019;28;20531;-71
2023/10/23 03:07:37;;;;;;;4.80;1.50;;;;;;;2.65;100.00;100073.19;5028805;28;20073;-71
2023/10/23 03:10:04;;;;;;;4.50;1.35;;;;;;;2.75;100.00;100072.19;4999597;28;20046;-71
2023/10/23 03:12:30;;;;;;;3.17;1.25;;;;;;;2.73;100.00;100063.59;5012358;28;20054;-71
2023/10/23 03:14:57;;;;;;;4.05;1.40;;;;;;;2.82;100.00;100070.34;5000389;28;20129;-71
2023/10/23 03:17:24;;;;;;;4.15;1.73;;;;;;;2.76;100.00;100073.03;4993521;28;20065;-71
2023/10/23 03:19:50;;;;;;;1.60;1.20;;;;;;;2.76;100.00;100083.38;5005412;28;20042;-71
2023/10/23 03:22:17;;;;;;;4.47;1.30;;;;;;;2.81;100.00;100084.16;5009593;28;20057;-71
2023/10/23 03:24:44;;;;;;;5.45;1.42;;;;;;;2.87;100.00;100083.19;4992966;28;20042;-70
2023/10/23 03:27:11;;;;;;;2.97;1.30;;;;;;;2.95;100.00;100079.59;4995389;28;20542;-71
2023/10/23 03:29:37;;;;;;;3.75;1.40;;;;;;;2.97;100.00;100089.91;5005259;28;20061;-71
2023/10/23 03:32:05;;;;;;;2.00;1.15;;;;;;;3.02;100.00;100083.78;4997115;28;20116;-70
2023/10/23 03:34:31;;;;;;;2.72;1.30;;;;;;;3.06;100.00;100088.91;4993353;28;20137;-70
2023/10/23 03:36:58;;;;;;;3.38;1.40;;;;;;;3.03;100.00;100101.03;4992756;28;20065;-71
2023/10/23 03:39:24;;;;;;;5.20;1.33;;;;;;;3.03;100.00;100097.59;5008077;28;20420;-71
2023/10/23 03:41:51;;;;;;;4.72;1.63;;;;;;;2.94;100.00;100095.13;5013101;28;20061;-71
2023/10/23 03:44:18;;;;;;;2.70;1.30;;;;;;;3.01;100.00;100113.13;5000042;28;20050;-71
2023/10/23 03:46:45;;;;;;;2.30;1.10;;;;;;;3.03;100.00;100115.69;5011942;28;20595;-71
2023/10/23 03:49:11;;;;;;;2.55;1.20;;;;;;;3.01;100.00;100113.13;5005717;28;20056;-71
2023/10/23 03:51:38;;;;;;;3.78;1.48;;;;;;;3.08;100.00;100108.72;5012374;28;20049;-71
2023/10/23 03:54:05;;;;;;;2.58;1.13;;;;;;;3.00;100.00;100108.81;5012330;28;20058;-71
2023/10/23 03:56:31;;;;;;;2.70;1.20;;;;;;;3.03;100.00;100115.69;4988610;28;20050;-71
2023/10/23 03:59:00;;;;;;;4.88;1.50;;;;;;;2.89;100.00;100103.00;4997472;28;20047;-71
2023/10/23 04:01:27;;;;;;;2.53;1.50;;;;;;;2.98;100.00;100127.84;5012288;28;20591;-71
2023/10/23 04:03:54;;;;;;;2.72;1.40;;;;;;;2.77;100.00;100116.09;4993228;28;20116;-71
2023/10/23 04:06:20;;;;;;;2.55;1.27;;;;;;;2.69;100.00;100133.47;4993405;28;20060;-71
2023/10/23 04:08:51;;;;;;;2.65;1.35;;;;;;;2.72;100.00;100136.00;4997462;28;20046;-71
2023/10/23 04:11:18;;;;;;;4.75;1.30;;;;;;;2.59;100.00;100120.69;5012585;28;20085;-71
2023/10/23 04:13:45;;;;;;;3.53;1.52;;;;;;;2.58;100.00;100143.94;5008948;28;20484;-71
2023/10/23 04:16:12;;;;;;;3.20;1.45;;;;;;;2.48;100.00;100130.31;5002503;28;20270;-71
2023/10/23 04:18:39;;;;;;;4.72;1.40;;;;;;;2.50;100.00;100127.69;4998249;28;20444;-71
2023/10/23 04:21:07;;;;;;;3.55;1.50;;;;;;;2.56;100.00;100137.97;5000680;28;20049;-71
2023/10/23 04:23:35;;;;;;;5.18;1.85;;;;;;;2.44;100.00;100128.63;4998406;28;20046;-71
2023/10/23 04:26:02;;;;;;;2.67;1.35;;;;;;;2.50;100.00;100128.56;4994821;28;20077;-71
2023/10/23 04:28:30;;;;;;;2.03;1.30;;;;;;;2.42;100.00;100112.31;5005081;28;20059;-71
2023/10/23 04:30:57;;;;;;;3.63;1.38;;;;;;;2.50;100.00;100144.06;5006985;28;20046;-71
2023/10/23 04:33:24;;;;;;;2.53;1.33;;;;;;;2.44;100.00;100131.22;4992574;28;20062;-71
2023/10/23 04:35:56;;;;;;;3.72;1.27;;;;;;;2.51;100.00;100140.59;5005604;28;20049;-71
2023/10/23 04:38:26;;;;;;;2.40;1.27;;;;;;;2.56;100.00;100140.53;4985302;28;20057;-71
2023/10/23 04:40:53;;;;;;;3.40;1.50;;;;;;;2.54;100.00;100137.13;5012119;28;20054;-71
2023/10/23 04:43:20;;;;;;;4.65;1.60;;;;;;;2.43;100.00;100130.38;4996063;28;20090;-71
2023/10/23 04:45:48;;;;;;;3.63;1.65;;;;;;;2.40;100.00;100145.06;5011629;28;20049;-71
2023/10/23 04:48:15;;;;;;;2.45;1.25;;;;;;;2.40;100.00;100133.00;5004353;28;20073;-71
2023/10/23 04:50:42;;;;;;;3.92;1.45;;;;;;;2.40;100.00;100121.81;4996131;28;20057;-71
2023/10/23 04:53:08;;;;;;;2.80;1.23;;;;;;;2.48;100.00;100127.75;4994043;28;20061;-71
2023/10/23 04:55:40;;;;;;;1.98;1.20;;;;;;;2.61;100.00;100144.75;5005019;28;20089;-71
2023/10/23 04:58:08;;;;;;;3.00;1.40;;;;;;;2.65;100.00;100143.84;4996954;28;20056;-71
2023/10/23 05:00:37;;;;;;;2.05;1.10;;;;;;;2.60;100.00;100140.50;4991484;28;20046;-71
2023/10/23 05:03:05;;;;;;;3.47;1.70;;;;;;;2.40;100.00;100138.16;5004641;28;20046;-71
2023/10/23 05:05:32;;;;;;;4.18;1.48;;;;;;;2.38;100.00;100142.50;5010032;28;20550;-71
2023/10/23 05:07:59;;;;;;;2.63;1.20;;;;;;;2.39;100.00;100144.22;5011150;28;20060;-71
2023/10/23 05:10:26;;;;;;;5.32;1.50;;;;;;;2.36;100.00;100139.09;5007189;28;20073;-71
2023/10/23 05:12:53;;;;;;;5.60;2.05;;;;;;;2.29;100.00;100140.03;5001798;28;20509;-71
2023/10/23 05:15:20;;;;;;;4.00;1.50;;;;;;;2.14;100.00;100128.16;5023677;28;20407;-71
2023/10/23 05:17:47;;;;;;;4.07;1.52;;;;;;;2.25;100.00;100134.06;4992926;28;20112;-71
2023/10/23 05:20:14;;;;;;;4.32;1.52;;;;;;;2.15;100.00;100137.63;5005288;28;20336;-71
2023/10/23 05:22:40;;;;;;;2.83;1.48;;;;;;;2.24;100.00;100145.25;4990810;28;20080;-71
2023/10/23 05:25:08;;;;;;;3.45;1.40;;;;;;;2.30;100.00;100154.66;4994181;28;20080;-71
2023/10/23 05:27:39;;;;;;;3.40;1.42;;;;;;;2.39;100.00;100151.97;5003802;28;20506;-71
2023/10/23 05:30:06;;;;;;;2.80;1.30;;;;;;;2.45;100.00;100161.38;5003572;28;20099;-71
2023/10/23 05:32:37;;;;;;;2.45;1.20;;;;;;;2.46;100.00;100157.88;4991268;28;20081;-71
2023/10/23 05:35:06;;;;;;;2.83;1.20;;;;;;;2.54;100.00;100157.81;4991123;28;20050;-72
2023/10/23 05:37:34;;;;;;;2.58;1.33;;;;;;;2.54;100.00;100158.66;4991405;28;20638;-71
2023/10/23 05:40:01;;;;;;;2.53;1.30;;;;;;;2.42;100.00;100162.25;4996952;28;20222;-71
2023/10/23 05:42:28;;;;;;;3.88;1.48;;;;;;;2.49;100.00;100159.59;4998818;28;20050;-71
2023/10/23 05:44:54;;;;;;;3.17;1.25;;;;;;;2.47;100.00;100155.28;4995035;28;20136;-71
2023/10/23 05:47:21;;;;;;;2.53;1.20;;;;;;;2.43;100.00;100153.63;5007204;28;20078;-71
2023/10/23 05:49:48;;;;;;;2.72;1.15;;;;;;;2.30;100.00;100166.72;5006974;28;20311;-71
2023/10/23 05:52:14;;;;;;;3.72;1.30;;;;;;;2.32;100.00;100160.69;5010471;28;20053;-71
2023/10/23 05:54:41;;;;;;;2.63;1.40;;;;;;;2.22;100.00;100147.00;4999131;28;20397;-71
2023/10/23 05:57:07;;;;;;;3.25;1.38;;;;;;;2.20;100.00;100166.84;5001144;28;20125;-71
2023/10/23 05:59:34;;;;;;;4.20;1.63;;;;;;;2.26;100.00;100158.16;4995274;28;20047;-70
2023/10/23 06:02:01;;;;;;;4.22;1.40;;;;;;;2.29;100.00;100158.13;5000323;28;20072;-70
2023/10/23 06:04:27;;;;;;;3.90;1.70;;;;;;;2.30;100.00;100164.16;5003972;28;20061;-70
2023/10/23 06:06:54;;;;;;;5.78;1.70;;;;;;;2.16;100.00;100165.19;4997783;28;20140;-70
2023/10/23 06:09:21;;;;;;;3.67;1.40;;;;;;;2.14;100.00;100171.22;5003502;28;20400;-70
2023/10/23 06:11:48;;;;;;;3.05;1.50;;;;;;;2.12;100.00;100183.31;5011729;28;20055;-70
2023/10/23 06:14:14;;;;;;;3.45;1.60;;;;;;;2.12;100.00;100180.72;5006914;28;20050;-70
2023/10/23 06:16:41;;;;;;;4.45;1.60;;;;;;;2.15;100.00;100172.94;4995053;28;20050;-70
2023/10/23 06:19:08;;;;;;;7.57;1.80;;;;;;;2.09;100.00;100179.91;5002704;28;20042;-71
2023/10/23 06:21:35;;;;;;;2.97;1.42;;;;;;;2.03;100.00;100186.84;5014494;28;20054;-71
2023/10/23 06:24:03;;;;;;;3.20;1.30;;;;;;;2.00;100.00;100173.97;5014613;28;20054;-71
2023/10/23 06:26:30;;;;;;;3.72;1.55;;;;;;;1.96;100.00;100183.47;5014420;28;20046;-71
2023/10/23 06:28:56;;;;;;;2.60;1.38;;;;;;;1.95;100.00;100193.81;5012845;28;20440;-73
2023/10/23 06:31:23;;;;;;;3.63;1.50;;;;;;;1.93;100.00;100208.47;4997226;28;20070;-70
2023/10/23 06:33:51;;;;;;;4.80;1.67;;;;;;;1.85;100.00;100203.41;5005227;28;20128;-71
2023/10/23 06:36:18;;;;;;;2.97;1.30;;;;;;;1.79;100.00;100206.03;5002138;28;20451;-71
2023/10/23 06:38:45;;;;;;;3.72;1.60;;;;;;;1.86;100.00;100212.84;4996992;28;20062;-71
2023/10/23 06:41:11;;;;;;;5.40;2.15;;;;;;;1.96;100.00;100198.97;5008371;28;20049;-71
2023/10/23 06:43:38;;;;;;;3.60;1.33;;;;;;;1.90;100.00;100210.22;5002115;28;20411;-71
2023/10/23 06:46:06;;;;;;;4.78;1.92;;;;;;;1.68;100.00;100204.44;5027400;28;20897;-70
2023/10/23 06:48:33;;;;;;;3.22;1.60;;;;;;;1.75;100.00;100205.22;4994585;28;20346;-70
2023/10/23 06:50:59;;;;;;;5.53;1.60;;;;;;;1.88;100.00;100213.69;4994399;28;20046;-71
2023/10/23 06:53:26;;;;;;;3.45;1.50;;;;;;;1.88;100.00;100206.81;5012069;28;20056;-71
2023/10/23 06:55:54;;;;;;;4.40;1.70;;;;;;;2.02;100.00;100211.81;5014064;28;20049;-71
2023/10/23 06:58:22;;;;;;;3.50;1.55;;;;;;;2.04;100.00;100210.06;5010873;28;20066;-71
2023/10/23 07:00:48;;;;;;;2.72;1.42;;;;;;;1.90;100.00;100222.28;5003068;28;20050;-71
2023/10/23 07:03:15;;;;;;;4.93;1.60;;;;;;;1.89;100.00;100212.81;4997125;28;20058;-71
2023/10/23 07:05:42;;;;;;;4.78;1.55;;;;;;;1.85;100.00;100203.41;4994412;28;20060;-71
2023/10/23 07:08:09;;;;;;;7.85;1.58;;;;;;;2.00;100.00;100220.44;5005882;28;20096;-71
2023/10/23 07:10:36;;;;;;;3.03;1.40;;;;;;;1.99;100.00;100222.19;4999469;28;20046;-71
2023/10/23 07:13:03;;;;;;;5.22;1.60;;;;;;;2.07;100.00;100228.13;5001727;28;20051;-71
2023/10/23 07:15:40;;;;;;;3.92;1.50;;;;;;;2.00;100.00;100225.59;5012996;28;20060;-71
2023/10/23 07:18:10;;;;;;;4.35;1.58;;;;;;;1.94;100.00;100218.78;5003905;28;20113;-71
2023/10/23 07:20:37;;;;;;;5.38;1.70;;;;;;;2.15;100.00;100228.03;5011383;28;20052;-71
2023/10/23 07:23:03;;;;;;;4.72;1.60;;;;;;;2.28;100.00;100227.03;5028363;28;20559;-71
2023/10/23 07:25:30;;;;;;;3.88;1.40;;;;;;;2.33;100.00;100226.97;5013488;28;20057;-70
2023/10/23 07:27:57;;;;;;;4.15;1.50;;;;;;;2.30;100.00;100224.41;5013034;28;20482;-71
2023/10/23 07:30:24;;;;;;;3.75;1.27;;;;;;;2.27;100.00;100216.72;4997834;28;20476;-70
2023/10/23 07:32:51;;;;;;;4.88;1.67;;;;;;;2.38;100.00;100225.19;4993994;28;20088;-71
2023/10/23 07:35:18;;;;;;;3.40;1.58;;;;;;;2.38;100.00;100235.50;4993636;28;20046;-70
2023/10/23 07:37:44;;;;;;;5.13;1.50;;;;;;;2.51;100.00;100227.63;5008189;28;20065;-70
2023/10/23 07:40:11;;;;;;;3.33;1.55;;;;;;;2.70;100.00;100230.81;5005892;28;20045;-70
2023/10/23 07:42:38;;;;;;;10.73;1.98;;;;;;;2.60;100.00;100243.00;5006197;28;20137;-70
2023/10/23 07:45:05;;;;;;;5.40;1.50;;;;;;;2.63;100.00;100230.03;5007655;28;20411;-70
2023/10/23 07:47:32;;;;;;;2.85;1.40;;;;;;;2.88;100.00;100240.91;4992999;28;20057;-70
2023/10/23 07:49:59;;;;;;;2.83;1.40;;;;;;;3.07;100.00;100248.41;5010347;28;20097;-70
2023/10/23 07:52:25;;;;;;;4.72;1.92;;;;;;;3.09;100.00;100247.50;5002828;28;20090;-71
2023/10/23 07:54:52;;;;;;;4.03;1.55;;;;;;;3.27;100.00;100240.34;4995028;28;20074;-71
2023/10/23 07:57:19;;;;;;;5.10;1.73;;;;;;;3.22;100.00;100223.16;5003832;28;20042;-71
2023/10/23 07:59:46;;;;;;;5.55;1.90;;;;;;;3.67;100.00;100243.16;5000553;28;20122;-71
2023/10/23 08:02:13;;;;;;;6.38;1.77;;;;;;;3.89;100.00;100253.13;4995184;28;20057;-70
2023/10/23 08:04:40;;;;;;;6.93;1.83;;;;;;;4.27;100.00;100244.63;4993298;28;20181;-71
2023/10/23 08:07:07;;;;;;;10.07;2.58;;;;;;;4.30;100.00;100241.13;4995338;28;20054;-71
2023/10/23 08:09:35;;;;;;;5.10;1.75;;;;;;;4.71;100.00;100253.25;4991512;28;20092;-70
2023/10/23 08:12:01;;;;;;;6.20;1.92;;;;;;;4.71;100.00;100245.47;4995877;28;20056;-71
2023/10/23 08:14:28;;;;;;;10.95;2.13;;;;;;;4.82;100.00;100240.06;5012303;28;20054;-71
2023/10/23 08:16:54;;;;;;;7.30;1.92;;;;;;;4.77;100.00;100241.06;4997604;28;20059;-70
2023/10/23 08:19:21;;;;;;;5.40;1.55;;;;;;;4.78;100.00;100243.63;5000377;28;20088;-71
2023/10/23 08:21:48;;;;;;;3.88;1.50;;;;;;;4.76;100.00;100235.00;5002030;28;20053;-71
2023/10/23 08:24:15;;;;;;;4.93;1.65;;;;;;;4.69;100.00;100228.22;4992524;28;20060;-71
2023/10/23 08:26:42;;;;;;;3.78;1.48;;;;;;;4.66;100.00;100231.75;4992671;28;20050;-71
2023/10/23 08:29:09;;;;;;;4.68;1.60;;;;;;;4.64;100.00;100228.34;4996907;28;20399;-71
2023/10/23 08:31:35;;;;;;;4.55;1.65;;;;;;;4.54;100.00;100227.66;5001688;28;20047;-71
2023/10/23 08:34:07;;;;;;;5.43;1.85;;;;;;;4.31;100.00;100222.09;4992713;28;20337;-71
2023/10/23 08:36:34;;;;;;;4.32;1.65;;;;;;;4.51;100.00;100240.69;4992279;28;20104;-71
2023/10/23 08:39:02;;;;;;;6.00;1.92;;;;;;;4.64;100.00;100258.59;4992448;28;20516;-71
2023/10/23 08:41:30;;;;;;;5.15;1.65;;;;;;;4.94;100.00;100241.53;4996559;28;20049;-71
2023/10/23 08:43:57;;;;;;;4.80;1.80;;;;;;;5.01;100.00;100231.84;5011890;28;20472;-71
2023/10/23 08:46:26;;;;;;;2.97;1.30;;;;;;;5.25;100.00;100238.22;4997583;28;20046;-71
2023/10/23 08:48:53;;;;;;;3.85;1.40;;;;;;;5.33;100.00;100236.31;4996006;28;20050;-71
2023/10/23 08:51:20;;;;;;;3.50;1.50;;;;;;;5.30;100.00;100236.38;5002536;28;20051;-71
2023/10/23 08:53:55;;;;;;;3.72;1.60;;;;;;;5.11;100.00;100239.38;4999442;28;20100;-71
2023/10/23 08:56:39;;;;;;;6.90;2.22;;;;;;;5.17;100.00;100250.53;4994649;28;20054;-70
2023/10/23 08:59:09;;;;;;;3.90;1.50;;;;;;;5.17;100.00;100247.91;4991647;28;20057;-71
2023/10/23 09:01:37;;;;;;;4.13;1.50;;;;;;;5.29;100.00;100251.09;5006987;28;20497;-70
2023/10/23 09:04:05;;;;;;;4.20;1.52;;;;;;;5.29;100.00;100255.44;5003589;28;20050;-71
2023/10/23 09:06:35;;;;;;;6.43;2.00;;;;;;;5.16;100.00;100241.88;5005620;28;20056;-71
2023/10/23 09:09:04;;;;;;;2.78;1.40;;;;;;;5.47;100.00;100251.53;4991965;28;20575;-71
2023/10/23 09:11:46;;;;;;;6.82;1.60;;;;;;;5.53;100.00;100250.56;4991824;28;20046;-71
2023/10/23 09:14:28;;;;;;;4.47;1.50;;;;;;;5.78;100.00;100250.78;4987057;28;20052;-70
2023/10/23 09:16:56;;;;;;;6.72;1.70;;;;;;;5.76;100.00;100237.00;5009545;28;20131;-71
2023/10/23 09:19:36;;;;;;;5.32;1.88;;;;;;;5.90;100.00;100247.88;4999673;28;20049;-71
2023/10/23 09:22:06;;;;;;;4.32;2.08;;;;;;;6.18;100.00;100253.22;4980093;28;20050;-70
2023/10/23 09:24:35;;;;;;;8.93;1.63;;;;;;;6.22;100.00;100233.19;5002830;28;20061;-70
2023/10/23 09:27:03;;;;;;;4.47;1.80;;;;;;;6.20;100.00;100235.00;4992117;28;20062;-70
2023/10/23 09:29:30;;;;;;;6.03;1.50;;;;;;;6.24;100.00;100237.44;5003990;28;20500;-70
2023/10/23 09:31:58;;;;;;;6.07;1.90;;;;;;;6.33;100.00;100254.53;4989382;28;20046;-70
2023/10/23 09:34:27;;;;;;;7.05;1.90;;;;;;;6.42;100.00;100259.47;4999329;28;20512;-70
2023/10/23 09:36:54;;;;;;;6.72;2.20;;;;;;;6.51;100.00;100263.56;5013781;28;20389;-70
2023/10/23 09:39:22;;;;;;;9.85;3.85;;;;;;;6.72;100.00;100261.25;5005352;28;20060;-70
2023/10/23 09:41:49;;;;;;;6.47;2.40;;;;;;;6.76;100.00;100262.84;5004640;28;20462;-70
2023/10/23 09:44:17;;;;;;;7.15;2.60;;;;;;;6.73;100.00;100247.34;5004153;28;20057;-70
2023/10/23 09:46:47;;;;;;;8.68;2.50;;;;;;;6.88;100.00;100261.66;4991547;28;20042;-70
2023/10/23 09:49:15;;;;;;;7.05;2.50;;;;;;;7.02;100.00;100270.75;4990826;28;20142;-70
2023/10/23 09:51:46;;;;;;;7.78;2.88;;;;;;;7.02;100.00;100269.91;4995426;28;20349;-70
2023/10/23 09:54:16;;;;;;;5.22;1.80;;;;;;;7.29;100.00;100273.38;5010926;28;20082;-70
2023/10/23 09:56:54;;;;;;;6.38;1.80;;;;;;;7.50;100.00;100273.63;5011048;28;20046;-70
2023/10/23 09:59:33;;;;;;;7.00;2.10;;;;;;;7.50;100.00;100286.66;5011488;28;20397;-70
2023/10/23 10:02:00;;;;;;;5.85;1.88;;;;;;;7.69;100.00;100279.94;4996775;28;20072;-70
2023/10/23 10:04:42;;;;;;;4.32;1.80;;;;;;;7.78;100.00;100289.22;5010475;28;20128;-70
2023/10/23 10:07:23;;;;;;;5.43;1.80;;;;;;;7.90;100.00;100286.19;4991246;28;20578;-70
2023/10/23 10:09:51;;;;;;;5.05;1.67;;;;;;;8.04;100.00;100282.25;4990736;28;20050;-71
2023/10/23 10:12:19;;;;;;;4.13;1.65;;;;;;;7.88;100.00;100289.72;4993416;28;20345;-71
2023/10/23 10:14:47;;;;;;;7.53;2.95;;;;;;;7.87;100.00;100293.25;5002703;28;20054;-71
2023/10/23 10:17:17;;;;;;;10.63;2.35;;;;;;;7.92;100.00;100299.19;5008596;28;20050;-71
2023/10/23 10:19:45;;;;;;;7.50;2.47;;;;;;;8.07;100.00;100284.75;5017075;28;20050;-71
2023/10/23 10:22:22;;;;;;;6.53;2.70;;;;;;;8.01;100.00;100296.25;4997170;28;20405;-71
2023/10/23 10:24:52;;;;;;;5.47;2.10;;;;;;;8.18;100.00;100296.53;5011136;28;20054;-70
2023/10/23 10:27:20;;;;;;;6.68;2.00;;;;;;;8.22;100.00;100281.63;4992964;28;20499;-71
2023/10/23 10:29:47;;;;;;;6.40;2.00;;;;;;;8.48;100.00;100304.22;4990542;28;20046;-70
2023/10/23 10:32:13;;;;;;;7.05;2.28;;;;;;;8.44;100.00;100302.59;4995143;28;20241;-70
2023/10/23 10:34:46;;;;;;;5.75;2.00;;;;;;;8.63;100.00;100304.56;4994992;28;20049;-70
2023/10/23 10:37:29;;;;;;;6.72;2.25;;;;;;;8.59;100.00;100296.00;5009200;28;20519;-70
2023/10/23 10:39:55;;;;;;;6.90;2.42;;;;;;;8.56;100.00;100324.81;4991202;28;20419;-71
2023/10/23 10:42:24;;;;;;;4.28;1.60;;;;;;;8.53;100.00;100323.19;5005740;28;20407;-71
2023/10/23 10:44:55;;;;;;;6.65;2.28;;;;;;;8.55;100.00;100321.34;5013771;28;20054;-70
2023/10/23 10:47:43;;;;;;;4.93;1.70;;;;;;;9.07;100.00;100322.94;5003019;28;20050;-71
2023/10/23 10:50:11;;;;;;;4.22;1.70;;;;;;;9.25;100.00;100327.47;4996036;28;20042;-71
2023/10/23 10:52:40;;;;;;;6.75;2.45;;;;;;;9.31;100.00;100316.78;4993725;28;20054;-71
2023/10/23 10:55:11;;;;;;;7.65;2.30;;;;;;;9.27;100.00;100317.78;5011863;28;20045;-70
2023/10/23 10:57:44;;;;;;;6.05;2.38;;;;;;;9.21;100.00;100302.38;5001599;28;20057;-71
2023/10/23 11:00:12;;;;;;;6.97;2.53;;;;;;;9.36;100.00;100308.75;4993919;28;20462;-70
2023/10/23 11:02:39;;;;;;;6.28;1.92;;;;;;;9.51;100.00;100309.94;5004351;28;20140;-70
2023/10/23 11:05:11;;;;;;;7.28;1.95;;;;;;;9.61;100.00;100323.47;5005269;28;20054;-71
2023/10/23 11:07:39;;;;;;;5.07;1.67;;;;;;;9.62;100.00;100309.50;5002698;28;20046;-71
2023/10/23 11:10:06;;;;;;;7.32;2.45;;;;;;;9.50;100.00;100322.13;4998427;28;20058;-70
2023/10/23 11:12:33;;;;;;;6.28;2.08;;;;;;;9.48;100.00;100308.25;5001621;28;20057;-71
2023/10/23 11:15:00;;;;;;;6.30;1.90;;;;;;;9.65;100.00;100306.72;5000120;28;20051;-71
2023/10/23 11:17:27;;;;;;;4.28;1.63;;;;;;;9.71;100.00;100305.66;4993754;28;20476;-71
2023/10/23 11:19:53;;;;;;;4.38;1.60;;;;;;;9.75;100.00;100300.22;5005887;28;20084;-71
2023/10/23 11:22:23;;;;;;;8.68;1.63;;;;;;;9.69;100.00;100303.09;5014322;28;20484;-71
2023/10/23 11:24:51;;;;;;;3.40;1.35;;;;;;;9.91;100.00;100295.19;5002824;28;20133;-71
2023/10/23 11:27:17;;;;;;;6.15;1.60;;;;;;;9.76;100.00;100280.19;5006415;28;20054;-71